Time;durP1;ratioP1;P1;durP2;ratioP2;P2;SDS_P1;SDS_P2;PMS_P1;PMS_P2;Temp;Humidity;BMP_temperature;BMP_pressure;BME280_temperature;BME280_humidity;BME280_pressure;Samples;Min_cycle;Max_cycle;Signal;HPM_P1;HPM_P2
2022/10/05 00:01:37;;;;;;;10.77;6.68;;;;;;;14.05;89.75;101577.56;5096410;28;20027;-88
2022/10/05 00:04:26;;;;;;;9.95;6.70;;;;;;;14.03;89.66;101575.03;5079402;28;20035;-88
2022/10/05 00:07:18;;;;;;;10.23;6.57;;;;;;;14.01;89.85;101571.72;5114093;28;20027;-88
2022/10/05 00:10:11;;;;;;;11.88;6.78;;;;;;;14.02;89.79;101572.53;5095807;28;20034;-88
2022/10/05 00:12:39;;;;;;;11.30;6.30;;;;;;;14.01;90.09;101570.84;5095730;28;20030;-88
2022/10/05 00:15:19;;;;;;;11.15;6.65;;;;;;;13.98;90.73;101577.63;5116413;28;20038;-88
2022/10/05 00:17:55;;;;;;;13.23;6.90;;;;;;;14.00;90.60;101571.94;5100305;28;20059;-88
2022/10/05 00:20:24;;;;;;;10.50;6.72;;;;;;;13.96;90.94;101576.97;5100750;28;20047;-88
2022/10/05 00:29:37;;;;;;;14.77;6.78;;;;;;;13.97;91.53;101559.56;5074706;28;20527;-88
2022/10/05 00:32:18;;;;;;;11.00;6.30;;;;;;;13.99;91.38;101571.09;5041932;28;20416;-88
2022/10/05 00:34:54;;;;;;;10.32;6.80;;;;;;;13.93;91.57;101561.06;5042410;28;20076;-87
2022/10/05 00:37:25;;;;;;;12.75;7.18;;;;;;;13.93;91.54;101554.78;5058288;28;20067;-88
2022/10/05 00:39:53;;;;;;;13.03;7.50;;;;;;;13.95;91.58;101561.69;5058956;28;20033;-88
2022/10/05 00:49:24;;;;;;;12.80;7.80;;;;;;;13.92;92.10;101573.03;4995678;28;20076;-88
2022/10/05 01:02:25;;;;;;;12.25;7.00;;;;;;;13.86;92.08;101569.31;5074320;28;20416;-88
2022/10/05 01:05:00;;;;;;;13.45;7.43;;;;;;;13.84;92.93;101565.09;5125413;27;20046;-88
2022/10/05 01:07:38;;;;;;;14.27;7.72;;;;;;;13.81;92.84;101554.66;5136891;27;20075;-88
2022/10/05 01:10:35;;;;;;;13.03;7.60;;;;;;;13.86;92.79;101560.25;5138289;27;20081;-88
2022/10/05 01:13:13;;;;;;;12.68;7.55;;;;;;;13.84;92.88;101557.75;5139927;27;20037;-88
2022/10/05 01:15:53;;;;;;;10.32;7.38;;;;;;;13.81;93.12;101541.84;5139819;27;20019;-88
2022/10/05 01:18:50;;;;;;;11.02;6.88;;;;;;;13.81;92.84;101538.28;5139688;27;20057;-89
2022/10/05 01:25:05;;;;;;;16.00;7.23;;;;;;;13.74;92.92;101529.31;5074474;28;20035;-88
2022/10/05 01:27:52;;;;;;;9.65;7.53;;;;;;;13.75;93.40;101526.34;5139827;27;20110;-88
2022/10/05 01:33:53;;;;;;;16.67;7.30;;;;;;;13.73;93.58;101527.63;5158786;27;20087;-88
2022/10/05 01:36:31;;;;;;;10.77;6.53;;;;;;;13.77;93.72;101537.88;5140343;27;20029;-88
2022/10/05 01:39:18;;;;;;;20.73;7.60;;;;;;;13.72;93.68;101523.25;5139247;27;20027;-88
2022/10/05 01:41:57;;;;;;;13.35;8.02;;;;;;;13.72;93.71;101523.25;5139679;27;20023;-88
2022/10/05 01:45:11;;;;;;;12.50;7.55;;;;;;;13.68;93.69;101517.38;5094171;28;20043;-88
2022/10/05 01:51:21;;;;;;;16.13;7.13;;;;;;;13.68;93.84;101514.66;5157888;27;20555;-88
2022/10/05 01:54:24;;;;;;;13.73;7.40;;;;;;;13.71;94.41;101507.94;5139627;27;20037;-88
2022/10/05 01:57:20;;;;;;;14.55;7.07;;;;;;;13.71;94.15;101507.94;5139085;27;20023;-88
2022/10/05 01:59:58;;;;;;;10.35;7.15;;;;;;;13.67;93.81;101505.66;5139425;27;20050;-88
2022/10/05 02:02:36;;;;;;;14.25;7.47;;;;;;;13.70;94.02;101493.47;5139019;27;20026;-88
2022/10/05 02:05:28;;;;;;;12.63;7.38;;;;;;;13.73;93.52;101495.75;5138987;27;20037;-88
2022/10/05 02:08:10;;;;;;;11.07;7.23;;;;;;;13.65;94.20;101479.66;5139266;27;20030;-88
2022/10/05 02:10:57;;;;;;;9.50;7.30;;;;;;;13.69;94.12;101494.50;5138759;27;20019;-88
2022/10/05 02:13:54;;;;;;;13.13;7.38;;;;;;;13.65;93.60;101469.56;5139008;27;20034;-88
2022/10/05 02:16:52;;;;;;;;;;;;;;;;;;;;;
2022/10/05 02:19:45;;;;;;;10.02;6.93;;;;;;;13.68;93.90;101471.03;5141468;27;20463;-88
2022/10/05 02:22:36;;;;;;;12.40;6.90;;;;;;;13.79;93.48;101475.78;5124037;27;20035;-88
2022/10/05 02:25:13;;;;;;;11.75;7.18;;;;;;;13.69;93.48;101464.53;5138987;27;20030;-88
2022/10/05 02:28:25;;;;;;;;;;;;;;;;;;;;;
2022/10/05 02:31:03;;;;;;;11.63;7.07;;;;;;;13.69;93.77;101468.06;5144538;27;20038;-88
2022/10/05 02:33:36;;;;;;;10.05;6.55;;;;;;;13.75;93.48;101465.53;5138756;27;20057;-88
2022/10/05 02:36:38;;;;;;;10.80;6.80;;;;;;;13.76;93.54;101468.03;5138733;27;20466;-88
2022/10/05 02:39:26;;;;;;;15.38;7.10;;;;;;;13.71;93.94;101456.94;5138090;27;20033;-88
2022/10/05 02:42:28;;;;;;;17.52;7.45;;;;;;;13.76;93.50;101462.59;5138891;27;20107;-88
2022/10/05 02:45:04;;;;;;;10.68;6.68;;;;;;;13.72;93.84;101457.78;5119447;27;20045;-88
2022/10/05 02:47:48;;;;;;;10.43;6.47;;;;;;;13.66;93.86;101440.44;5137964;27;20079;-87
2022/10/05 02:51:06;;;;;;;8.60;6.47;;;;;;;13.72;93.83;101450.44;5138448;27;20030;-88
2022/10/05 02:53:52;;;;;;;10.20;7.00;;;;;;;13.71;94.08;101451.50;5138067;27;20022;-88
2022/10/05 02:57:00;;;;;;;11.93;6.53;;;;;;;13.61;93.77;101432.91;5138878;27;20395;-88
2022/10/05 02:59:30;;;;;;;13.43;7.13;;;;;;;13.61;94.14;101423.88;5055565;28;20416;-88
2022/10/05 03:02:16;;;;;;;11.30;6.57;;;;;;;13.66;93.41;101432.25;5126613;27;20041;-88
2022/10/05 03:05:05;;;;;;;12.07;6.73;;;;;;;13.58;94.56;101436.09;5138608;27;20332;-88
2022/10/05 03:07:59;;;;;;;14.55;7.15;;;;;;;13.55;94.09;101431.03;5138020;27;20455;-88
2022/10/05 03:10:49;;;;;;;12.85;6.95;;;;;;;13.56;95.09;101434.63;5137483;27;20034;-88
2022/10/05 03:13:41;;;;;;;10.57;7.63;;;;;;;13.46;95.04;101422.34;5138268;27;20113;-87
2022/10/05 03:16:31;;;;;;;10.93;6.50;;;;;;;13.51;95.40;101427.13;5137544;27;20027;-87
2022/10/05 03:19:19;;;;;;;8.57;6.43;;;;;;;13.50;95.41;101423.53;5138495;27;20058;-88
2022/10/05 03:22:31;;;;;;;;;;;;;;;;;;;;;
2022/10/05 03:25:24;;;;;;;10.30;7.13;;;;;;;13.47;95.75;101420.44;5156903;27;20033;-88
2022/10/05 03:27:58;;;;;;;12.45;6.80;;;;;;;13.46;95.62;101419.59;5137497;27;20037;-88
2022/10/05 03:30:49;;;;;;;10.23;6.35;;;;;;;13.42;95.87;101418.38;5138197;27;20445;-88
2022/10/05 03:33:32;;;;;;;13.33;7.07;;;;;;;13.42;95.94;101415.66;5137132;27;20015;-89
2022/10/05 03:36:32;;;;;;;11.90;6.50;;;;;;;13.44;96.18;101423.59;5095376;27;20032;-89
2022/10/05 03:42:37;;;;;;;10.25;6.43;;;;;;;13.38;96.14;101411.69;5155541;27;20068;-88
2022/10/05 03:45:18;;;;;;;9.95;6.43;;;;;;;13.45;96.13;101417.06;5137695;27;20037;-89
2022/10/05 03:48:29;;;;;;;8.53;6.27;;;;;;;13.42;96.01;101426.53;5138068;27;20470;-88
2022/10/05 03:51:25;;;;;;;11.50;6.28;;;;;;;13.47;95.97;101423.97;5099435;27;20038;-88
2022/10/05 03:54:10;;;;;;;10.45;7.00;;;;;;;13.37;96.26;101409.19;5137365;27;20490;-88
2022/10/05 03:57:32;;;;;;;;;;;;;;;;;;;;;
2022/10/05 04:00:28;;;;;;;;;;;;;;;;;;;;;
2022/10/05 04:03:26;;;;;;;11.33;7.47;;;;;;;13.42;96.49;101420.25;5156382;27;20019;-88
2022/10/05 04:06:27;;;;;;;11.75;7.68;;;;;;;13.41;96.45;101422.13;5136580;27;20037;-88
2022/10/05 04:09:44;;;;;;;12.48;6.72;;;;;;;13.43;95.63;101417.28;5136596;27;20041;-88
2022/10/05 04:12:37;;;;;;;13.48;7.40;;;;;;;13.45;96.24;101433.41;5102815;27;20039;-88
2022/10/05 04:15:31;;;;;;;14.05;8.15;;;;;;;13.42;96.15;101426.53;5137071;27;20035;-88
2022/10/05 04:18:12;;;;;;;13.73;7.77;;;;;;;13.38;96.50;101425.31;5136641;27;20424;-88
2022/10/05 04:20:54;;;;;;;14.75;8.88;;;;;;;13.37;96.52;101420.06;5137382;27;20045;-88
2022/10/05 04:23:45;;;;;;;14.68;7.95;;;;;;;13.39;96.08;101418.81;5155004;27;20518;-88
2022/10/05 04:26:23;;;;;;;12.52;8.25;;;;;;;13.36;96.61;101421.97;5137004;27;20083;-88
2022/10/05 04:29:04;;;;;;;12.15;7.70;;;;;;;13.36;96.26;101404.78;5155268;27;20047;-88
2022/10/05 04:32:02;;;;;;;13.40;8.10;;;;;;;13.35;96.77;101420.31;5136362;27;20493;-88
2022/10/05 04:34:43;;;;;;;12.57;7.90;;;;;;;13.31;96.52;101406.22;5136255;27;20379;-88
2022/10/05 04:37:59;;;;;;;12.70;7.72;;;;;;;13.30;96.71;101401.84;5136823;27;20119;-88
2022/10/05 04:44:30;;;;;;;11.27;7.18;;;;;;;13.38;96.38;101406.22;5068614;28;20094;-88
2022/10/05 04:47:13;;;;;;;16.63;7.43;;;;;;;13.36;96.06;101391.16;5074285;28;20028;-88
2022/10/05 04:50:19;;;;;;;10.25;6.40;;;;;;;13.43;96.23;101409.13;5116453;27;20452;-88
2022/10/05 04:52:56;;;;;;;9.88;6.50;;;;;;;13.49;95.23;101405.53;5136261;27;20067;-88
2022/10/05 04:56:18;;;;;;;8.95;5.85;;;;;;;13.53;94.82;101402.34;5136769;27;20038;-88
2022/10/05 04:59:24;;;;;;;7.78;6.07;;;;;;;13.49;94.41;101394.63;5053774;28;20037;-88
2022/10/05 05:02:04;;;;;;;11.23;5.43;;;;;;;13.48;94.37;101390.22;5139167;27;20022;-88
2022/10/05 05:04:55;;;;;;;8.35;5.65;;;;;;;13.53;94.23;101399.63;5140527;27;20082;-88
2022/10/05 05:07:39;;;;;;;9.13;5.95;;;;;;;13.55;93.85;101400.22;5140373;27;20459;-87
2022/10/05 05:10:42;;;;;;;8.60;5.95;;;;;;;13.53;94.06;101399.63;5139573;27;20466;-88
2022/10/05 05:13:37;;;;;;;8.48;5.38;;;;;;;13.56;93.82;101399.19;5140417;27;20485;-89
2022/10/05 05:16:42;;;;;;;8.60;5.90;;;;;;;13.55;93.93;101394.78;5140179;27;20030;-88
2022/10/05 05:19:27;;;;;;;9.43;5.85;;;;;;;13.56;93.71;101399.19;5158406;27;20027;-88
2022/10/05 05:22:14;;;;;;;11.57;5.93;;;;;;;13.54;93.95;101406.72;5140001;27;20031;-88
2022/10/05 05:25:04;;;;;;;8.40;5.15;;;;;;;13.54;93.77;101390.38;5157962;27;20481;-88
2022/10/05 05:27:40;;;;;;;9.50;5.28;;;;;;;13.43;94.01;101387.31;5140527;27;20125;-88
2022/10/05 05:30:23;;;;;;;7.70;5.60;;;;;;;13.48;94.37;101386.66;5158376;27;20075;-88
2022/10/05 05:32:58;;;;;;;7.35;5.40;;;;;;;13.47;94.05;101388.53;5140150;27;20030;-89
2022/10/05 05:36:23;;;;;;;10.70;5.57;;;;;;;13.39;94.26;101380.66;5139479;27;20103;-89
2022/10/05 05:42:45;;;;;;;8.60;5.20;;;;;;;13.40;94.36;101376.03;5073886;28;20086;-90
2022/10/05 05:45:38;;;;;;;8.83;4.83;;;;;;;13.46;94.03;101376.00;5058084;28;20495;-88
2022/10/05 05:48:17;;;;;;;7.55;5.53;;;;;;;13.41;94.50;101383.97;5056722;28;20024;-87
2022/10/05 05:51:02;;;;;;;;;;;;;;;;;;;;;
2022/10/05 05:54:08;;;;;;;8.73;5.10;;;;;;;13.42;94.08;101371.19;5158105;27;20033;-89
2022/10/05 05:57:06;;;;;;;7.32;4.93;;;;;;;13.40;94.24;101362.41;5139028;27;20114;-87
2022/10/05 05:59:41;;;;;;;6.80;4.93;;;;;;;13.41;93.83;101364.06;5156713;27;20494;-87
2022/10/05 06:02:16;;;;;;;6.72;4.82;;;;;;;13.42;94.02;101360.28;5139773;27;20018;-87
2022/10/05 06:05:21;;;;;;;8.02;5.45;;;;;;;13.46;93.83;101364.22;5096793;27;20039;-87
2022/10/05 06:07:49;;;;;;;7.38;4.78;;;;;;;13.39;94.06;101361.56;5139359;27;20034;-86
2022/10/05 06:10:17;;;;;;;6.72;4.82;;;;;;;13.49;93.72;101367.38;5157178;27;20034;-87
2022/10/05 06:12:49;;;;;;;5.40;4.33;;;;;;;13.51;93.30;101376.16;5137982;27;20099;-86
2022/10/05 06:15:26;;;;;;;9.70;4.07;;;;;;;13.51;93.15;101365.25;5157625;27;20033;-87
2022/10/05 06:18:00;;;;;;;8.10;4.35;;;;;;;13.47;93.26;101371.34;5139270;27;20057;-87
2022/10/05 06:20:41;;;;;;;9.48;4.45;;;;;;;13.51;93.01;101351.59;5138580;27;20121;-87
2022/10/05 06:23:33;;;;;;;7.30;4.68;;;;;;;13.49;92.85;101350.16;5138288;27;20022;-86
2022/10/05 06:26:23;;;;;;;7.67;4.00;;;;;;;13.61;92.88;101367.47;5157147;27;20027;-86
2022/10/05 06:28:59;;;;;;;7.05;4.25;;;;;;;13.60;92.78;101357.63;5138179;27;20046;-85
2022/10/05 06:31:43;;;;;;;6.50;3.83;;;;;;;13.69;92.85;101363.63;5157705;27;20041;-85
2022/10/05 06:34:23;;;;;;;6.13;4.25;;;;;;;13.72;92.19;101368.63;5138752;27;20504;-85
2022/10/05 06:36:54;;;;;;;5.70;4.28;;;;;;;13.69;92.36;101360.91;5156879;27;20022;-85
2022/10/05 06:39:32;;;;;;;6.10;4.10;;;;;;;13.74;92.23;101368.41;5138573;27;20086;-85
2022/10/05 06:42:13;;;;;;;6.13;4.07;;;;;;;13.76;91.81;101367.13;5138579;27;20466;-85
2022/10/05 06:44:58;;;;;;;5.50;4.15;;;;;;;13.76;92.19;101364.41;5138411;27;20039;-84
2022/10/05 06:47:42;;;;;;;5.82;3.97;;;;;;;13.82;91.90;101373.59;5156276;27;20099;-84
2022/10/05 06:50:26;;;;;;;6.70;4.32;;;;;;;13.85;91.82;101371.22;5156148;27;20023;-84
2022/10/05 06:53:09;;;;;;;7.33;4.20;;;;;;;13.88;91.69;101372.69;5156062;27;20037;-84
2022/10/05 06:55:52;;;;;;;7.90;4.60;;;;;;;13.90;91.17;101356.91;5137435;27;20036;-84
2022/10/05 06:58:29;;;;;;;8.85;4.38;;;;;;;13.94;91.49;101368.22;5156646;27;20098;-84
2022/10/05 07:01:09;;;;;;;6.68;4.75;;;;;;;13.97;91.86;101367.78;5138245;27;20041;-84
2022/10/05 07:03:56;;;;;;;7.72;4.00;;;;;;;14.02;91.11;101374.22;5138728;27;20030;-84
2022/10/05 07:06:37;;;;;;;10.77;4.60;;;;;;;14.07;90.86;101375.41;5138440;27;20035;-84
2022/10/05 07:09:49;;;;;;;6.55;4.40;;;;;;;14.08;90.69;101380.66;5156137;27;20027;-84
2022/10/05 07:12:48;;;;;;;7.65;4.22;;;;;;;14.14;90.40;101373.47;5055723;28;20036;-84
2022/10/05 07:15:23;;;;;;;8.18;4.50;;;;;;;14.19;90.10;101376.34;5055480;28;20112;-84
2022/10/05 07:18:11;;;;;;;8.82;4.22;;;;;;;14.25;90.26;101367.25;5134822;27;20110;-84
2022/10/05 07:21:00;;;;;;;8.73;4.20;;;;;;;14.30;89.50;101374.75;5156094;27;20031;-84
2022/10/05 07:23:56;;;;;;;8.07;4.07;;;;;;;14.34;89.50;101379.53;5136932;27;20471;-84
2022/10/05 07:26:29;;;;;;;7.35;4.38;;;;;;;14.39;89.31;101371.50;5137748;27;20074;-84
2022/10/05 07:29:11;;;;;;;8.88;4.20;;;;;;;14.43;88.78;101377.34;5156196;27;20047;-86
2022/10/05 07:31:48;;;;;;;9.50;4.55;;;;;;;14.43;89.07;101382.78;5137666;27;20087;-86
2022/10/05 07:34:25;;;;;;;9.87;4.13;;;;;;;14.52;88.36;101377.88;5138021;27;20046;-86
2022/10/05 07:40:26;;;;;;;8.88;3.97;;;;;;;14.63;88.40;101379.00;5120644;27;20035;-86
2022/10/05 07:43:18;;;;;;;7.40;4.00;;;;;;;14.69;87.62;101378.09;5137501;27;20050;-86
2022/10/05 07:45:43;;;;;;;5.82;3.58;;;;;;;14.70;87.45;101377.88;5136930;27;20038;-86
2022/10/05 07:48:15;;;;;;;7.03;4.43;;;;;;;14.71;87.56;101379.53;5136714;27;20023;-86
2022/10/05 07:50:55;;;;;;;5.80;3.83;;;;;;;14.75;87.31;101379.91;5136992;27;20355;-86
2022/10/05 07:53:31;;;;;;;6.95;4.00;;;;;;;14.77;86.91;101385.16;5137168;27;20031;-86
2022/10/05 07:56:03;;;;;;;5.18;3.60;;;;;;;14.78;87.33;101384.91;5137246;27;20482;-86
2022/10/05 07:58:54;;;;;;;7.93;4.43;;;;;;;14.83;86.86;101384.22;5155485;27;20041;-86
2022/10/05 08:01:33;;;;;;;6.00;4.03;;;;;;;14.87;86.80;101389.00;5137058;27;20027;-86
2022/10/05 08:04:42;;;;;;;7.70;3.90;;;;;;;14.94;86.35;101383.44;5136825;27;20122;-86
2022/10/05 08:07:14;;;;;;;4.97;3.72;;;;;;;14.95;86.44;101370.63;5071398;28;20036;-87
2022/10/05 08:10:04;;;;;;;6.90;3.55;;;;;;;15.14;85.93;101377.69;5054370;28;20090;-87
2022/10/05 08:13:07;;;;;;;6.15;3.72;;;;;;;15.20;85.75;101376.75;5110667;27;20034;-87
2022/10/05 08:15:41;;;;;;;5.30;3.75;;;;;;;15.29;84.47;101371.78;5136749;27;20034;-86
2022/10/05 08:18:33;;;;;;;5.77;3.67;;;;;;;15.34;84.71;101368.34;5137923;27;20023;-87
2022/10/05 08:20:59;;;;;;;4.60;3.50;;;;;;;15.41;84.04;101372.66;5137198;27;20035;-86
2022/10/05 08:23:42;;;;;;;5.60;4.00;;;;;;;15.50;83.89;101359.47;5136365;27;20466;-87
2022/10/05 08:26:23;;;;;;;8.77;4.10;;;;;;;15.59;83.60;101352.56;5136687;27;20272;-86
2022/10/05 08:28:54;;;;;;;6.38;3.47;;;;;;;15.64;82.99;101367.44;5136553;27;20086;-87
2022/10/05 08:31:38;;;;;;;9.80;3.38;;;;;;;15.64;83.34;101354.59;5136575;27;20474;-86
2022/10/05 08:34:24;;;;;;;7.82;3.25;;;;;;;15.64;82.54;101342.84;5155087;27;20041;-87
2022/10/05 08:37:11;;;;;;;6.57;3.47;;;;;;;15.70;82.43;101355.56;5139543;27;20041;-87
2022/10/05 08:40:05;;;;;;;6.00;3.30;;;;;;;15.83;82.27;101343.59;5159832;27;20030;-87
2022/10/05 08:42:31;;;;;;;5.70;3.38;;;;;;;15.90;81.92;101350.59;5140423;27;20030;-86
2022/10/05 08:45:49;;;;;;;5.73;3.37;;;;;;;15.96;81.78;101349.63;5140534;27;20027;-87
2022/10/05 08:49:01;;;;;;;7.30;3.28;;;;;;;15.98;81.40;101343.09;5140954;27;20023;-86
2022/10/05 08:52:01;;;;;;;5.93;3.55;;;;;;;16.06;81.04;101345.44;5116319;27;20048;-87
2022/10/05 08:54:54;;;;;;;10.38;3.78;;;;;;;16.23;81.41;101354.59;5113929;27;20466;-86
2022/10/05 08:57:53;;;;;;;5.43;3.20;;;;;;;16.37;80.66;101344.22;5141099;27;20131;-87
2022/10/05 09:00:20;;;;;;;4.17;3.10;;;;;;;16.40;79.23;101335.50;5159194;27;20060;-87
2022/10/05 09:03:20;;;;;;;4.13;3.40;;;;;;;16.44;79.53;101344.06;5140259;27;20015;-85
2022/10/05 09:05:48;;;;;;;7.78;3.00;;;;;;;16.54;78.79;101343.44;5158645;27;20031;-85
2022/10/05 09:08:19;;;;;;;5.63;3.17;;;;;;;16.61;79.08;101333.19;5140017;27;20119;-85
2022/10/05 09:10:56;;;;;;;5.20;2.83;;;;;;;16.72;77.52;101331.47;5140087;27;20110;-85
2022/10/05 09:13:42;;;;;;;5.47;3.33;;;;;;;16.69;77.68;101334.69;5140130;27;20098;-85
2022/10/05 09:16:59;;;;;;;4.50;2.70;;;;;;;16.69;78.50;101330.03;5138832;27;20027;-85
2022/10/05 09:19:50;;;;;;;5.40;3.00;;;;;;;16.86;77.73;101319.13;5080039;27;20422;-85
2022/10/05 09:22:33;;;;;;;4.60;2.78;;;;;;;16.89;76.72;101335.13;5140706;27;20022;-86
2022/10/05 09:25:18;;;;;;;6.22;2.78;;;;;;;16.93;77.18;101322.59;5139590;27;20079;-87
2022/10/05 09:27:56;;;;;;;7.50;2.90;;;;;;;16.87;76.65;101320.81;5139160;27;20019;-85
2022/10/05 09:30:58;;;;;;;5.50;2.70;;;;;;;16.86;77.04;101319.13;5139731;27;20041;-85
2022/10/05 09:33:57;;;;;;;4.65;2.70;;;;;;;17.07;76.79;101323.09;5139928;27;20372;-85
2022/10/05 09:36:51;;;;;;;3.83;3.10;;;;;;;17.25;75.81;101323.94;5158445;27;20034;-86
2022/10/05 09:39:47;;;;;;;7.13;2.65;;;;;;;17.29;75.75;101319.63;5139051;27;20059;-86
2022/10/05 09:42:15;;;;;;;3.33;2.63;;;;;;;17.33;74.56;101323.53;5138911;27;20030;-86
2022/10/05 09:45:17;;;;;;;6.25;2.80;;;;;;;17.20;75.72;101330.19;5157651;27;20026;-86
2022/10/05 09:48:03;;;;;;;9.50;3.53;;;;;;;17.19;75.37;101314.81;5139183;27;20058;-85
2022/10/05 09:50:38;;;;;;;5.22;2.83;;;;;;;17.23;75.77;101317.88;5139341;27;20035;-85
2022/10/05 09:53:04;;;;;;;6.40;2.80;;;;;;;17.26;75.54;101303.66;5139320;27;20034;-86
2022/10/05 09:55:56;;;;;;;5.67;2.87;;;;;;;17.47;75.01;101300.16;5139227;27;20118;-86
2022/10/05 09:58:28;;;;;;;6.43;2.65;;;;;;;17.66;73.92;101300.72;5139377;27;20038;-86
2022/10/05 10:01:15;;;;;;;7.07;3.57;;;;;;;17.73;73.58;101299.72;5137541;27;20030;-87
2022/10/05 10:04:05;;;;;;;5.00;2.90;;;;;;;17.71;73.23;101300.78;5139192;27;20030;-92
2022/10/05 10:07:08;;;;;;;6.03;2.97;;;;;;;17.78;73.29;101289.66;5157470;27;20466;-85
2022/10/05 10:10:05;;;;;;;6.15;2.55;;;;;;;17.84;73.05;101296.84;5138770;27;20027;-85
2022/10/05 10:13:03;;;;;;;5.13;2.75;;;;;;;17.79;73.60;101287.72;5157799;27;20019;-85
2022/10/05 10:15:59;;;;;;;7.67;2.67;;;;;;;17.96;72.72;101279.50;5123017;27;20150;-86
2022/10/05 10:18:44;;;;;;;3.72;2.65;;;;;;;18.18;72.04;101294.03;5138522;27;20125;-85
2022/10/05 10:21:47;;;;;;;4.65;2.72;;;;;;;18.46;71.50;101283.13;5138544;27;20030;-86
2022/10/05 10:24:34;;;;;;;8.85;3.17;;;;;;;18.64;69.94;101276.44;5157210;27;20031;-86
2022/10/05 10:27:26;;;;;;;5.25;2.63;;;;;;;18.87;69.18;101267.06;5157315;27;20030;-87
2022/10/05 10:30:09;;;;;;;3.43;2.60;;;;;;;18.96;69.23;101273.75;5138196;27;20050;-86
2022/10/05 10:33:00;;;;;;;6.28;2.70;;;;;;;19.35;68.59;101265.22;5138498;27;20026;-86
2022/10/05 10:35:35;;;;;;;4.97;2.55;;;;;;;19.45;66.78;101248.81;5157580;27;20102;-85
2022/10/05 10:38:35;;;;;;;4.25;2.20;;;;;;;19.56;66.70;101260.72;5138646;27;20023;-86
2022/10/05 10:41:39;;;;;;;10.68;2.58;;;;;;;19.74;66.19;101253.94;5137836;27;20126;-86
2022/10/05 10:44:23;;;;;;;5.17;2.60;;;;;;;19.53;66.13;101260.41;5139043;27;20462;-88
2022/10/05 10:47:26;;;;;;;3.45;2.25;;;;;;;19.75;66.99;101258.34;5138347;27;20470;-86
2022/10/05 10:50:23;;;;;;;6.47;2.20;;;;;;;19.89;65.92;101250.47;5138381;27;20118;-85
2022/10/05 10:52:58;;;;;;;4.38;2.20;;;;;;;19.96;65.06;101251.03;5156566;27;20034;-86
2022/10/05 10:55:32;;;;;;;6.82;2.42;;;;;;;20.12;64.78;101245.56;5138339;27;20026;-86
2022/10/05 10:58:33;;;;;;;3.17;1.97;;;;;;;20.18;64.01;101240.91;5137697;27;20053;-85
2022/10/05 11:01:39;;;;;;;4.72;2.10;;;;;;;20.32;63.30;101242.88;5137575;27;20027;-86
2022/10/05 11:04:40;;;;;;;5.32;2.40;;;;;;;20.01;64.32;101225.44;5137763;27;20048;-86
2022/10/05 11:07:37;;;;;;;7.20;2.45;;;;;;;20.70;61.35;101206.88;5123046;27;20378;-86
2022/10/05 11:10:11;;;;;;;8.63;2.00;;;;;;;21.34;60.70;101229.47;5137889;27;20472;-86
2022/10/05 11:12:54;;;;;;;6.13;2.40;;;;;;;22.14;59.13;101230.59;5156536;27;20091;-86
2022/10/05 11:15:44;;;;;;;4.78;1.98;;;;;;;22.46;56.77;101215.53;5137694;27;20027;-85
2022/10/05 11:18:26;;;;;;;3.00;1.98;;;;;;;21.69;57.63;101214.78;5156172;27;20025;-86
2022/10/05 11:21:07;;;;;;;5.82;2.50;;;;;;;20.99;59.59;101220.13;5155820;27;20030;-86
2022/10/05 11:23:35;;;;;;;9.38;2.28;;;;;;;21.01;60.67;101220.69;5137014;27;20042;-86
2022/10/05 11:26:38;;;;;;;12.77;2.00;;;;;;;21.13;60.59;101223.97;5138006;27;20135;-86
2022/10/05 11:29:22;;;;;;;7.03;2.13;;;;;;;20.87;60.08;101209.38;5155982;27;20047;-86
2022/10/05 11:32:04;;;;;;;4.57;2.17;;;;;;;21.10;60.53;101207.16;5137826;27;20026;-86
2022/10/05 11:34:42;;;;;;;6.05;2.10;;;;;;;21.27;59.28;101195.81;5137009;27;20019;-86
2022/10/05 11:37:30;;;;;;;10.68;2.15;;;;;;;23.45;53.62;101204.16;5137326;27;20046;-86
2022/10/05 11:39:58;;;;;;;10.00;2.07;;;;;;;24.60;50.50;101188.53;5137850;27;20135;-86
2022/10/05 11:42:39;;;;;;;10.77;2.20;;;;;;;25.56;48.61;101175.97;5136807;27;20106;-86
2022/10/05 11:45:24;;;;;;;9.57;2.15;;;;;;;25.39;47.31;101189.66;5136829;27;20041;-85
2022/10/05 11:48:12;;;;;;;18.25;2.05;;;;;;;24.83;47.54;101175.66;5137591;27;20397;-86
2022/10/05 11:51:07;;;;;;;10.55;2.10;;;;;;;26.94;44.39;101173.13;5157245;27;20075;-86
2022/10/05 11:53:47;;;;;;;8.67;1.90;;;;;;;28.52;40.67;101157.63;5156200;27;20026;-87
2022/10/05 11:56:27;;;;;;;7.90;2.05;;;;;;;28.24;39.75;101159.94;5156460;27;20027;-86
2022/10/05 11:59:11;;;;;;;10.38;2.10;;;;;;;27.56;40.54;101157.53;5155812;27;20079;-86
2022/10/05 12:01:43;;;;;;;4.25;1.80;;;;;;;28.14;39.84;101145.19;5136712;27;20171;-83
2022/10/05 12:04:37;;;;;;;6.68;1.80;;;;;;;27.99;40.43;101145.66;5155912;27;20125;-85
2022/10/05 12:07:19;;;;;;;8.13;2.10;;;;;;;27.23;40.65;101113.31;5132334;27;20038;-84
2022/10/05 12:10:19;;;;;;;4.35;2.10;;;;;;;27.39;42.21;101134.03;5138016;27;20042;-87
2022/10/05 12:13:05;;;;;;;3.20;2.10;;;;;;;29.27;38.95;101128.56;5138742;27;20366;-87
2022/10/05 12:15:39;;;;;;;4.95;2.13;;;;;;;30.57;35.56;101126.78;5155388;27;20023;-87
2022/10/05 12:18:14;;;;;;;4.65;2.00;;;;;;;31.38;33.90;101103.91;5156372;27;20019;-87
2022/10/05 12:20:48;;;;;;;8.47;2.00;;;;;;;29.66;35.70;101099.41;5138028;27;20030;-87
2022/10/05 12:23:29;;;;;;;11.43;2.20;;;;;;;29.23;37.50;101106.03;5137884;27;20026;-86
2022/10/05 12:26:06;;;;;;;4.05;1.90;;;;;;;29.76;36.19;101100.94;5137666;27;20029;-87
2022/10/05 12:28:45;;;;;;;6.40;1.92;;;;;;;31.04;34.05;101100.41;5156499;27;20078;-87
2022/10/05 12:31:20;;;;;;;4.57;2.38;;;;;;;31.99;32.59;101125.47;5137730;27;20041;-86
2022/10/05 12:33:58;;;;;;;4.97;2.17;;;;;;;32.35;31.88;101094.81;5136928;27;20027;-87
2022/10/05 12:36:44;;;;;;;7.07;2.55;;;;;;;32.25;31.98;101084.13;5137556;27;20018;-85
2022/10/05 12:39:52;;;;;;;6.80;2.60;;;;;;;31.54;32.83;101095.59;5136636;27;20035;-87
2022/10/05 12:42:36;;;;;;;4.82;2.20;;;;;;;32.67;31.41;101097.69;5136744;27;20122;-87
2022/10/05 12:45:17;;;;;;;10.75;2.55;;;;;;;31.55;30.84;101128.09;5135866;27;20031;-87
2022/10/05 12:48:01;;;;;;;14.77;2.60;;;;;;;28.86;34.70;101109.31;5136638;27;20031;-87
2022/10/05 12:50:31;;;;;;;14.90;2.50;;;;;;;28.50;36.08;101101.34;5136433;27;20026;-87
2022/10/05 12:53:15;;;;;;;11.55;2.45;;;;;;;28.45;37.11;101101.50;5155057;27;20022;-87
2022/10/05 12:56:02;;;;;;;13.52;2.22;;;;;;;29.61;35.26;101110.75;5136085;27;20031;-87
2022/10/05 12:58:38;;;;;;;9.68;2.35;;;;;;;30.91;33.00;101105.16;5136665;27;20451;-87
2022/10/05 13:01:22;;;;;;;14.90;2.60;;;;;;;31.83;31.77;101118.94;5135795;27;20023;-87
2022/10/05 13:04:04;;;;;;;11.40;2.58;;;;;;;31.95;30.85;101113.31;5135806;27;20129;-87
2022/10/05 13:06:44;;;;;;;6.72;2.58;;;;;;;31.78;30.43;101096.75;5153867;27;20073;-87
2022/10/05 13:09:19;;;;;;;18.48;2.50;;;;;;;31.60;31.27;101121.47;5135593;27;20037;-86
2022/10/05 13:11:59;;;;;;;21.77;3.00;;;;;;;31.85;31.37;101102.59;5135334;27;20027;-87
2022/10/05 13:15:14;;;;;;;14.03;2.60;;;;;;;31.24;31.65;101078.22;5135976;27;20077;-87
2022/10/05 13:17:47;;;;;;;12.45;3.13;;;;;;;31.31;31.96;101103.69;5135092;27;20083;-87
2022/10/05 13:20:27;;;;;;;8.85;2.53;;;;;;;32.11;31.47;101088.16;5135286;27;20034;-86
2022/10/05 13:23:16;;;;;;;7.60;2.33;;;;;;;32.76;30.22;101097.53;5156260;27;20027;-87
2022/10/05 13:26:00;;;;;;;5.57;2.40;;;;;;;31.53;31.98;101113.59;5138888;27;20033;-87
2022/10/05 13:28:43;;;;;;;8.87;2.53;;;;;;;30.60;33.52;101092.50;5110410;27;1309080;-86
2022/10/05 13:31:31;;;;;;;8.27;2.45;;;;;;;29.62;34.94;101094.81;5140303;27;20043;-87
2022/10/05 13:34:28;;;;;;;6.03;2.50;;;;;;;30.28;33.92;101091.34;5140261;27;20027;-88
2022/10/05 13:37:06;;;;;;;5.97;2.72;;;;;;;28.32;36.37;101104.16;5140462;27;20031;-82
2022/10/05 13:40:11;;;;;;;3.53;2.22;;;;;;;26.49;40.34;101109.97;5139221;27;20027;-86
2022/10/05 13:42:58;;;;;;;5.10;2.25;;;;;;;25.11;43.65;101111.84;5139754;27;20045;-87
2022/10/05 13:45:29;;;;;;;5.50;1.80;;;;;;;24.49;45.00;101098.25;5158721;27;20034;-86
2022/10/05 13:48:21;;;;;;;5.87;2.27;;;;;;;23.96;46.70;101113.22;5139531;27;20485;-87